Terminal Aerodrome Forecast
Issued by NWS

Home | Current Version | Previous Version | Text Only | Print | Product List | Glossary On
Versions: 1 2 3 4 5 6 7 8 9 10 11 12 13 14 15 16
922
FTUS43 KMQT 091736
TAFIWD
TAF
KIWD 091736Z 0918/1018 26013KT 4SM -SHSN BKN025
      TEMPO 0918/0921 2SM -SHSN BKN020
     FM100100 25011KT P6SM OVC025
     FM100300 26009KT P6SM OVC015=

USA.gov is the U.S. government's official web portal to all federal, state and local government web resources and services.